sensor_id;sensor_type;location;lat;lon;timestamp;P1;durP1;ratioP1;P2;durP2;ratioP2
52964;SDS011;42923;53.220;6.528;2023-05-07T00:01:43;27.73;;;20.67;;
52964;SDS011;42923;53.220;6.528;2023-05-07T00:04:08;23.67;;;18.67;;
52964;SDS011;42923;53.220;6.528;2023-05-07T00:06:34;27.50;;;19.58;;
52964;SDS011;42923;53.220;6.528;2023-05-07T00:09:00;26.20;;;19.92;;
52964;SDS011;42923;53.220;6.528;2023-05-07T00:11:27;30.35;;;21.35;;
52964;SDS011;42923;53.220;6.528;2023-05-07T00:13:52;27.75;;;21.92;;
52964;SDS011;42923;53.220;6.528;2023-05-07T00:16:18;29.83;;;21.35;;
52964;SDS011;42923;53.220;6.528;2023-05-07T00:18:44;30.45;;;22.77;;
52964;SDS011;42923;53.220;6.528;2023-05-07T00:21:10;28.10;;;21.33;;
52964;SDS011;42923;53.220;6.528;2023-05-07T00:23:36;29.60;;;22.27;;
52964;SDS011;42923;53.220;6.528;2023-05-07T00:26:02;30.38;;;22.40;;
52964;SDS011;42923;53.220;6.528;2023-05-07T00:28:29;30.92;;;20.80;;
52964;SDS011;42923;53.220;6.528;2023-05-07T00:30:55;37.05;;;24.30;;
52964;SDS011;42923;53.220;6.528;2023-05-07T00:33:21;35.65;;;23.58;;
52964;SDS011;42923;53.220;6.528;2023-05-07T00:35:47;32.70;;;22.45;;
52964;SDS011;42923;53.220;6.528;2023-05-07T00:38:13;28.80;;;22.70;;
52964;SDS011;42923;53.220;6.528;2023-05-07T00:40:39;32.17;;;23.45;;
52964;SDS011;42923;53.220;6.528;2023-05-07T00:43:05;38.58;;;25.08;;
52964;SDS011;42923;53.220;6.528;2023-05-07T00:45:32;33.60;;;25.70;;
52964;SDS011;42923;53.220;6.528;2023-05-07T00:47:59;36.67;;;25.80;;
52964;SDS011;42923;53.220;6.528;2023-05-07T00:50:29;37.03;;;25.42;;
52964;SDS011;42923;53.220;6.528;2023-05-07T00:52:55;34.35;;;24.40;;
52964;SDS011;42923;53.220;6.528;2023-05-07T00:55:22;36.25;;;27.10;;
52964;SDS011;42923;53.220;6.528;2023-05-07T00:57:49;30.98;;;24.42;;
52964;SDS011;42923;53.220;6.528;2023-05-07T01:00:15;37.47;;;25.67;;
52964;SDS011;42923;53.220;6.528;2023-05-07T01:02:42;30.35;;;25.27;;
52964;SDS011;42923;53.220;6.528;2023-05-07T01:05:09;41.38;;;27.83;;
52964;SDS011;42923;53.220;6.528;2023-05-07T01:07:39;35.35;;;22.88;;
52964;SDS011;42923;53.220;6.528;2023-05-07T01:10:07;34.85;;;26.02;;
52964;SDS011;42923;53.220;6.528;2023-05-07T01:12:34;37.53;;;27.52;;
52964;SDS011;42923;53.220;6.528;2023-05-07T01:15:05;38.45;;;28.08;;
52964;SDS011;42923;53.220;6.528;2023-05-07T01:17:36;33.72;;;22.13;;
52964;SDS011;42923;53.220;6.528;2023-05-07T01:20:04;36.53;;;25.90;;
52964;SDS011;42923;53.220;6.528;2023-05-07T01:22:31;33.95;;;25.58;;
52964;SDS011;42923;53.220;6.528;2023-05-07T01:24:58;34.55;;;27.42;;
52964;SDS011;42923;53.220;6.528;2023-05-07T01:27:27;36.35;;;27.58;;
52964;SDS011;42923;53.220;6.528;2023-05-07T01:29:53;37.17;;;25.63;;
52964;SDS011;42923;53.220;6.528;2023-05-07T01:32:21;35.88;;;24.83;;
52964;SDS011;42923;53.220;6.528;2023-05-07T01:35:05;37.85;;;27.10;;
52964;SDS011;42923;53.220;6.528;2023-05-07T01:37:35;40.90;;;30.17;;
52964;SDS011;42923;53.220;6.528;2023-05-07T01:40:01;37.13;;;28.27;;
52964;SDS011;42923;53.220;6.528;2023-05-07T01:42:28;38.13;;;28.17;;
52964;SDS011;42923;53.220;6.528;2023-05-07T01:44:54;33.10;;;25.27;;
52964;SDS011;42923;53.220;6.528;2023-05-07T01:47:21;36.05;;;27.42;;
52964;SDS011;42923;53.220;6.528;2023-05-07T01:49:47;38.00;;;27.42;;
52964;SDS011;42923;53.220;6.528;2023-05-07T01:52:13;37.53;;;27.83;;
52964;SDS011;42923;53.220;6.528;2023-05-07T01:54:39;42.63;;;28.20;;
52964;SDS011;42923;53.220;6.528;2023-05-07T01:57:05;36.65;;;26.15;;
52964;SDS011;42923;53.220;6.528;2023-05-07T01:59:31;33.92;;;25.45;;
52964;SDS011;42923;53.220;6.528;2023-05-07T02:01:56;36.97;;;26.92;;
52964;SDS011;42923;53.220;6.528;2023-05-07T02:04:22;37.55;;;27.02;;
52964;SDS011;42923;53.220;6.528;2023-05-07T02:06:49;34.50;;;22.70;;
52964;SDS011;42923;53.220;6.528;2023-05-07T02:09:15;41.58;;;27.23;;
52964;SDS011;42923;53.220;6.528;2023-05-07T02:11:44;36.35;;;26.75;;
52964;SDS011;42923;53.220;6.528;2023-05-07T02:14:10;34.50;;;23.77;;
52964;SDS011;42923;53.220;6.528;2023-05-07T02:16:35;35.35;;;25.00;;
52964;SDS011;42923;53.220;6.528;2023-05-07T02:19:01;38.63;;;26.83;;
52964;SDS011;42923;53.220;6.528;2023-05-07T02:21:27;34.53;;;26.38;;
52964;SDS011;42923;53.220;6.528;2023-05-07T02:23:53;36.53;;;26.88;;
52964;SDS011;42923;53.220;6.528;2023-05-07T02:26:19;42.90;;;27.65;;
52964;SDS011;42923;53.220;6.528;2023-05-07T02:28:46;37.35;;;26.20;;
52964;SDS011;42923;53.220;6.528;2023-05-07T02:31:12;35.90;;;27.02;;
52964;SDS011;42923;53.220;6.528;2023-05-07T02:33:38;37.45;;;27.20;;
52964;SDS011;42923;53.220;6.528;2023-05-07T02:36:09;42.92;;;27.55;;
52964;SDS011;42923;53.220;6.528;2023-05-07T02:38:45;39.05;;;25.33;;
52964;SDS011;42923;53.220;6.528;2023-05-07T02:41:11;43.17;;;28.77;;
52964;SDS011;42923;53.220;6.528;2023-05-07T02:43:36;41.15;;;27.25;;
52964;SDS011;42923;53.220;6.528;2023-05-07T02:46:06;37.33;;;24.33;;
52964;SDS011;42923;53.220;6.528;2023-05-07T02:48:36;45.95;;;28.30;;
52964;SDS011;42923;53.220;6.528;2023-05-07T02:51:02;36.92;;;27.17;;
52964;SDS011;42923;53.220;6.528;2023-05-07T02:53:29;35.45;;;27.15;;
52964;SDS011;42923;53.220;6.528;2023-05-07T02:55:55;45.47;;;27.80;;
52964;SDS011;42923;53.220;6.528;2023-05-07T02:58:22;43.72;;;28.55;;
52964;SDS011;42923;53.220;6.528;2023-05-07T03:00:48;43.35;;;28.50;;
52964;SDS011;42923;53.220;6.528;2023-05-07T03:03:24;38.45;;;25.95;;
52964;SDS011;42923;53.220;6.528;2023-05-07T03:05:50;39.22;;;29.98;;
52964;SDS011;42923;53.220;6.528;2023-05-07T03:08:16;46.42;;;29.83;;
52964;SDS011;42923;53.220;6.528;2023-05-07T03:10:42;44.60;;;28.77;;
52964;SDS011;42923;53.220;6.528;2023-05-07T03:13:08;43.33;;;28.27;;
52964;SDS011;42923;53.220;6.528;2023-05-07T03:15:34;40.72;;;29.67;;
52964;SDS011;42923;53.220;6.528;2023-05-07T03:17:59;41.22;;;27.67;;
52964;SDS011;42923;53.220;6.528;2023-05-07T03:20:25;38.35;;;27.45;;
52964;SDS011;42923;53.220;6.528;2023-05-07T03:22:51;40.92;;;28.15;;
52964;SDS011;42923;53.220;6.528;2023-05-07T03:25:17;45.95;;;29.58;;
52964;SDS011;42923;53.220;6.528;2023-05-07T03:27:42;47.83;;;30.70;;
52964;SDS011;42923;53.220;6.528;2023-05-07T03:30:09;51.55;;;28.50;;
52964;SDS011;42923;53.220;6.528;2023-05-07T03:32:35;46.85;;;29.77;;
52964;SDS011;42923;53.220;6.528;2023-05-07T03:35:04;40.08;;;26.35;;
52964;SDS011;42923;53.220;6.528;2023-05-07T03:37:30;45.28;;;30.13;;
52964;SDS011;42923;53.220;6.528;2023-05-07T03:39:56;39.70;;;26.42;;
52964;SDS011;42923;53.220;6.528;2023-05-07T03:42:23;41.35;;;27.52;;
52964;SDS011;42923;53.220;6.528;2023-05-07T03:44:51;41.85;;;29.90;;
52964;SDS011;42923;53.220;6.528;2023-05-07T03:47:17;45.05;;;29.73;;
52964;SDS011;42923;53.220;6.528;2023-05-07T03:49:43;45.75;;;29.13;;
52964;SDS011;42923;53.220;6.528;2023-05-07T03:52:11;38.97;;;28.92;;
52964;SDS011;42923;53.220;6.528;2023-05-07T03:54:36;41.83;;;27.77;;
52964;SDS011;42923;53.220;6.528;2023-05-07T03:57:03;39.78;;;27.85;;
52964;SDS011;42923;53.220;6.528;2023-05-07T03:59:28;41.90;;;28.60;;
52964;SDS011;42923;53.220;6.528;2023-05-07T04:01:54;45.03;;;27.20;;
52964;SDS011;42923;53.220;6.528;2023-05-07T04:04:22;43.65;;;29.30;;
52964;SDS011;42923;53.220;6.528;2023-05-07T04:06:48;45.67;;;30.67;;
52964;SDS011;42923;53.220;6.528;2023-05-07T04:09:14;42.60;;;29.63;;
52964;SDS011;42923;53.220;6.528;2023-05-07T04:11:40;37.78;;;29.20;;
52964;SDS011;42923;53.220;6.528;2023-05-07T04:14:08;40.55;;;27.10;;
52964;SDS011;42923;53.220;6.528;2023-05-07T04:16:34;38.60;;;26.75;;
52964;SDS011;42923;53.220;6.528;2023-05-07T04:19:01;38.22;;;29.33;;
52964;SDS011;42923;53.220;6.528;2023-05-07T04:21:27;40.83;;;29.52;;
52964;SDS011;42923;53.220;6.528;2023-05-07T04:23:53;28.58;;;20.50;;
52964;SDS011;42923;53.220;6.528;2023-05-07T04:26:19;38.90;;;27.77;;
52964;SDS011;42923;53.220;6.528;2023-05-07T04:28:46;38.85;;;25.00;;
52964;SDS011;42923;53.220;6.528;2023-05-07T04:31:13;47.80;;;31.05;;
52964;SDS011;42923;53.220;6.528;2023-05-07T04:33:39;38.75;;;26.17;;
52964;SDS011;42923;53.220;6.528;2023-05-07T04:36:08;44.50;;;32.22;;
52964;SDS011;42923;53.220;6.528;2023-05-07T04:38:41;42.75;;;28.40;;
52964;SDS011;42923;53.220;6.528;2023-05-07T04:41:08;42.13;;;29.15;;
52964;SDS011;42923;53.220;6.528;2023-05-07T04:43:38;40.88;;;28.48;;
52964;SDS011;42923;53.220;6.528;2023-05-07T04:46:05;43.75;;;29.35;;
52964;SDS011;42923;53.220;6.528;2023-05-07T04:48:31;35.92;;;28.50;;
52964;SDS011;42923;53.220;6.528;2023-05-07T04:50:58;40.10;;;26.70;;
52964;SDS011;42923;53.220;6.528;2023-05-07T04:53:24;40.15;;;28.85;;
52964;SDS011;42923;53.220;6.528;2023-05-07T04:55:56;40.35;;;26.95;;
52964;SDS011;42923;53.220;6.528;2023-05-07T04:58:25;36.80;;;27.20;;
52964;SDS011;42923;53.220;6.528;2023-05-07T05:00:51;34.78;;;25.38;;
52964;SDS011;42923;53.220;6.528;2023-05-07T05:03:17;35.60;;;25.15;;
52964;SDS011;42923;53.220;6.528;2023-05-07T05:05:44;36.05;;;26.40;;
52964;SDS011;42923;53.220;6.528;2023-05-07T05:08:10;33.13;;;25.50;;
52964;SDS011;42923;53.220;6.528;2023-05-07T05:10:38;40.47;;;27.27;;
52964;SDS011;42923;53.220;6.528;2023-05-07T05:13:05;31.30;;;24.33;;
52964;SDS011;42923;53.220;6.528;2023-05-07T05:15:31;36.10;;;26.67;;
52964;SDS011;42923;53.220;6.528;2023-05-07T05:17:56;38.70;;;26.50;;
52964;SDS011;42923;53.220;6.528;2023-05-07T05:20:22;34.58;;;24.08;;
52964;SDS011;42923;53.220;6.528;2023-05-07T05:22:48;31.63;;;25.48;;
52964;SDS011;42923;53.220;6.528;2023-05-07T05:25:13;29.25;;;21.23;;
52964;SDS011;42923;53.220;6.528;2023-05-07T05:27:39;33.53;;;25.20;;
52964;SDS011;42923;53.220;6.528;2023-05-07T05:30:06;35.85;;;26.08;;
52964;SDS011;42923;53.220;6.528;2023-05-07T05:32:33;37.90;;;25.35;;
52964;SDS011;42923;53.220;6.528;2023-05-07T05:34:59;35.33;;;25.13;;
52964;SDS011;42923;53.220;6.528;2023-05-07T05:37:25;32.22;;;25.63;;
52964;SDS011;42923;53.220;6.528;2023-05-07T05:39:52;33.35;;;24.20;;
52964;SDS011;42923;53.220;6.528;2023-05-07T05:42:20;31.98;;;24.90;;
52964;SDS011;42923;53.220;6.528;2023-05-07T05:44:46;29.83;;;22.27;;
52964;SDS011;42923;53.220;6.528;2023-05-07T05:47:12;34.97;;;24.33;;
52964;SDS011;42923;53.220;6.528;2023-05-07T05:49:38;30.65;;;22.80;;
52964;SDS011;42923;53.220;6.528;2023-05-07T05:52:05;27.42;;;21.20;;
52964;SDS011;42923;53.220;6.528;2023-05-07T05:54:31;28.63;;;24.23;;
52964;SDS011;42923;53.220;6.528;2023-05-07T05:56:57;34.92;;;24.30;;
52964;SDS011;42923;53.220;6.528;2023-05-07T05:59:24;29.15;;;22.45;;
52964;SDS011;42923;53.220;6.528;2023-05-07T06:01:51;28.88;;;21.52;;
52964;SDS011;42923;53.220;6.528;2023-05-07T06:04:17;26.65;;;22.48;;
52964;SDS011;42923;53.220;6.528;2023-05-07T06:06:43;27.60;;;22.65;;
52964;SDS011;42923;53.220;6.528;2023-05-07T06:09:08;28.77;;;22.48;;
52964;SDS011;42923;53.220;6.528;2023-05-07T06:11:39;30.13;;;23.70;;
52964;SDS011;42923;53.220;6.528;2023-05-07T06:14:06;24.65;;;18.98;;
52964;SDS011;42923;53.220;6.528;2023-05-07T06:16:33;26.10;;;21.05;;
52964;SDS011;42923;53.220;6.528;2023-05-07T06:18:59;27.63;;;21.70;;
52964;SDS011;42923;53.220;6.528;2023-05-07T06:21:25;31.42;;;22.90;;
52964;SDS011;42923;53.220;6.528;2023-05-07T06:23:50;29.60;;;21.08;;
52964;SDS011;42923;53.220;6.528;2023-05-07T06:26:17;25.05;;;19.52;;
52964;SDS011;42923;53.220;6.528;2023-05-07T06:28:46;24.45;;;20.80;;
52964;SDS011;42923;53.220;6.528;2023-05-07T06:31:18;25.85;;;21.73;;
52964;SDS011;42923;53.220;6.528;2023-05-07T06:33:58;26.70;;;20.35;;
52964;SDS011;42923;53.220;6.528;2023-05-07T06:36:30;27.40;;;22.33;;
52964;SDS011;42923;53.220;6.528;2023-05-07T06:38:59;25.92;;;22.15;;
52964;SDS011;42923;53.220;6.528;2023-05-07T06:41:25;26.95;;;21.75;;
52964;SDS011;42923;53.220;6.528;2023-05-07T06:43:51;25.88;;;20.67;;
52964;SDS011;42923;53.220;6.528;2023-05-07T06:46:38;22.33;;;19.98;;
52964;SDS011;42923;53.220;6.528;2023-05-07T06:49:05;26.90;;;22.13;;
52964;SDS011;42923;53.220;6.528;2023-05-07T06:51:31;26.30;;;20.95;;
52964;SDS011;42923;53.220;6.528;2023-05-07T06:54:01;25.55;;;21.05;;
52964;SDS011;42923;53.220;6.528;2023-05-07T06:56:27;24.88;;;22.20;;
52964;SDS011;42923;53.220;6.528;2023-05-07T06:58:53;24.83;;;19.15;;
52964;SDS011;42923;53.220;6.528;2023-05-07T07:01:20;24.88;;;19.77;;
52964;SDS011;42923;53.220;6.528;2023-05-07T07:03:45;25.92;;;21.75;;
52964;SDS011;42923;53.220;6.528;2023-05-07T07:06:11;26.17;;;21.35;;
52964;SDS011;42923;53.220;6.528;2023-05-07T07:08:37;24.52;;;20.35;;
52964;SDS011;42923;53.220;6.528;2023-05-07T07:11:05;25.88;;;20.83;;
52964;SDS011;42923;53.220;6.528;2023-05-07T07:13:31;28.08;;;21.13;;
52964;SDS011;42923;53.220;6.528;2023-05-07T07:15:57;25.23;;;21.73;;
52964;SDS011;42923;53.220;6.528;2023-05-07T07:18:23;27.45;;;21.77;;
52964;SDS011;42923;53.220;6.528;2023-05-07T07:20:49;24.95;;;19.83;;
52964;SDS011;42923;53.220;6.528;2023-05-07T07:23:15;26.38;;;21.33;;
52964;SDS011;42923;53.220;6.528;2023-05-07T07:25:41;26.30;;;21.35;;
52964;SDS011;42923;53.220;6.528;2023-05-07T07:28:07;27.15;;;22.17;;
52964;SDS011;42923;53.220;6.528;2023-05-07T07:30:35;25.25;;;19.42;;
52964;SDS011;42923;53.220;6.528;2023-05-07T07:33:01;26.75;;;21.20;;
52964;SDS011;42923;53.220;6.528;2023-05-07T07:35:31;25.23;;;20.83;;
52964;SDS011;42923;53.220;6.528;2023-05-07T07:37:57;28.02;;;21.10;;
52964;SDS011;42923;53.220;6.528;2023-05-07T07:40:23;29.95;;;20.13;;
52964;SDS011;42923;53.220;6.528;2023-05-07T07:42:53;26.52;;;19.75;;
52964;SDS011;42923;53.220;6.528;2023-05-07T07:45:19;24.15;;;19.50;;
52964;SDS011;42923;53.220;6.528;2023-05-07T07:47:47;28.25;;;21.00;;
52964;SDS011;42923;53.220;6.528;2023-05-07T07:50:13;26.45;;;22.08;;
52964;SDS011;42923;53.220;6.528;2023-05-07T07:52:39;27.05;;;20.73;;
52964;SDS011;42923;53.220;6.528;2023-05-07T07:55:06;25.55;;;20.88;;
52964;SDS011;42923;53.220;6.528;2023-05-07T07:57:33;28.35;;;21.73;;
52964;SDS011;42923;53.220;6.528;2023-05-07T07:59:59;28.85;;;21.48;;
52964;SDS011;42923;53.220;6.528;2023-05-07T08:02:26;26.25;;;21.10;;
52964;SDS011;42923;53.220;6.528;2023-05-07T08:04:52;26.00;;;20.63;;
52964;SDS011;42923;53.220;6.528;2023-05-07T08:07:18;28.65;;;21.38;;
52964;SDS011;42923;53.220;6.528;2023-05-07T08:09:46;26.45;;;19.98;;
52964;SDS011;42923;53.220;6.528;2023-05-07T08:12:14;29.00;;;22.20;;
52964;SDS011;42923;53.220;6.528;2023-05-07T08:14:40;28.27;;;20.48;;
52964;SDS011;42923;53.220;6.528;2023-05-07T08:17:07;27.85;;;20.85;;
52964;SDS011;42923;53.220;6.528;2023-05-07T08:19:35;27.85;;;20.63;;
52964;SDS011;42923;53.220;6.528;2023-05-07T08:22:02;26.10;;;20.45;;
52964;SDS011;42923;53.220;6.528;2023-05-07T08:24:28;28.08;;;21.70;;
52964;SDS011;42923;53.220;6.528;2023-05-07T08:26:53;27.92;;;22.23;;
52964;SDS011;42923;53.220;6.528;2023-05-07T08:29:20;26.88;;;21.52;;
52964;SDS011;42923;53.220;6.528;2023-05-07T08:31:45;25.25;;;20.58;;
52964;SDS011;42923;53.220;6.528;2023-05-07T08:34:11;26.15;;;21.13;;
52964;SDS011;42923;53.220;6.528;2023-05-07T08:36:41;25.45;;;20.60;;
52964;SDS011;42923;53.220;6.528;2023-05-07T08:39:08;28.67;;;21.50;;
52964;SDS011;42923;53.220;6.528;2023-05-07T08:41:34;26.63;;;21.60;;
52964;SDS011;42923;53.220;6.528;2023-05-07T08:44:01;23.58;;;19.08;;
52964;SDS011;42923;53.220;6.528;2023-05-07T08:46:31;24.98;;;20.85;;
52964;SDS011;42923;53.220;6.528;2023-05-07T08:48:57;24.30;;;19.83;;
52964;SDS011;42923;53.220;6.528;2023-05-07T08:51:23;23.63;;;19.88;;
52964;SDS011;42923;53.220;6.528;2023-05-07T08:53:50;24.50;;;20.05;;
52964;SDS011;42923;53.220;6.528;2023-05-07T08:56:22;29.38;;;22.58;;
52964;SDS011;42923;53.220;6.528;2023-05-07T08:58:50;24.02;;;19.77;;
52964;SDS011;42923;53.220;6.528;2023-05-07T09:01:16;25.50;;;20.60;;
52964;SDS011;42923;53.220;6.528;2023-05-07T09:03:46;25.80;;;20.52;;
52964;SDS011;42923;53.220;6.528;2023-05-07T09:06:13;22.52;;;19.13;;
52964;SDS011;42923;53.220;6.528;2023-05-07T09:08:40;25.25;;;19.08;;
52964;SDS011;42923;53.220;6.528;2023-05-07T09:11:09;21.92;;;19.08;;
52964;SDS011;42923;53.220;6.528;2023-05-07T09:13:35;23.77;;;19.17;;
52964;SDS011;42923;53.220;6.528;2023-05-07T09:16:12;23.42;;;19.33;;
52964;SDS011;42923;53.220;6.528;2023-05-07T09:18:43;24.73;;;19.10;;
52964;SDS011;42923;53.220;6.528;2023-05-07T09:21:11;24.15;;;19.33;;
52964;SDS011;42923;53.220;6.528;2023-05-07T09:23:41;23.17;;;19.88;;
52964;SDS011;42923;53.220;6.528;2023-05-07T09:26:07;36.08;;;26.25;;
52964;SDS011;42923;53.220;6.528;2023-05-07T09:28:38;23.40;;;18.50;;
52964;SDS011;42923;53.220;6.528;2023-05-07T09:31:05;21.92;;;17.98;;
52964;SDS011;42923;53.220;6.528;2023-05-07T09:33:31;22.27;;;19.50;;
52964;SDS011;42923;53.220;6.528;2023-05-07T09:36:04;21.15;;;16.77;;
52964;SDS011;42923;53.220;6.528;2023-05-07T09:38:32;22.45;;;17.77;;
52964;SDS011;42923;53.220;6.528;2023-05-07T09:41:05;25.42;;;19.75;;
52964;SDS011;42923;53.220;6.528;2023-05-07T09:43:53;22.02;;;18.00;;
52964;SDS011;42923;53.220;6.528;2023-05-07T09:46:19;24.75;;;17.08;;
52964;SDS011;42923;53.220;6.528;2023-05-07T09:48:53;24.05;;;19.05;;
52964;SDS011;42923;53.220;6.528;2023-05-07T09:51:28;21.45;;;18.92;;
52964;SDS011;42923;53.220;6.528;2023-05-07T09:53:57;20.70;;;17.70;;
52964;SDS011;42923;53.220;6.528;2023-05-07T09:56:26;19.15;;;17.00;;
52964;SDS011;42923;53.220;6.528;2023-05-07T09:58:54;22.25;;;17.45;;
52964;SDS011;42923;53.220;6.528;2023-05-07T10:01:22;17.17;;;13.88;;
52964;SDS011;42923;53.220;6.528;2023-05-07T10:03:50;20.63;;;18.30;;
52964;SDS011;42923;53.220;6.528;2023-05-07T10:06:18;22.95;;;19.23;;
52964;SDS011;42923;53.220;6.528;2023-05-07T10:08:45;19.10;;;16.63;;
52964;SDS011;42923;53.220;6.528;2023-05-07T10:11:11;24.60;;;17.80;;
52964;SDS011;42923;53.220;6.528;2023-05-07T10:13:37;21.02;;;18.33;;
52964;SDS011;42923;53.220;6.528;2023-05-07T10:16:05;20.15;;;17.50;;
52964;SDS011;42923;53.220;6.528;2023-05-07T10:18:37;20.60;;;16.48;;
52964;SDS011;42923;53.220;6.528;2023-05-07T10:21:11;20.65;;;18.45;;
52964;SDS011;42923;53.220;6.528;2023-05-07T10:23:50;20.17;;;17.73;;
52964;SDS011;42923;53.220;6.528;2023-05-07T10:26:22;20.95;;;17.33;;
52964;SDS011;42923;53.220;6.528;2023-05-07T10:28:53;25.65;;;18.35;;
52964;SDS011;42923;53.220;6.528;2023-05-07T10:31:47;22.73;;;17.55;;
52964;SDS011;42923;53.220;6.528;2023-05-07T10:34:26;19.75;;;16.77;;
52964;SDS011;42923;53.220;6.528;2023-05-07T10:36:57;20.33;;;17.90;;
52964;SDS011;42923;53.220;6.528;2023-05-07T10:39:24;22.25;;;19.55;;
52964;SDS011;42923;53.220;6.528;2023-05-07T10:41:50;20.35;;;17.38;;
52964;SDS011;42923;53.220;6.528;2023-05-07T10:44:26;19.45;;;17.42;;
52964;SDS011;42923;53.220;6.528;2023-05-07T10:47:07;19.95;;;17.73;;
52964;SDS011;42923;53.220;6.528;2023-05-07T10:50:24;18.38;;;16.48;;
52964;SDS011;42923;53.220;6.528;2023-05-07T10:52:33;18.73;;;16.73;;
52964;SDS011;42923;53.220;6.528;2023-05-07T11:01:01;16.70;;;14.95;;
52964;SDS011;42923;53.220;6.528;2023-05-07T11:03:35;16.83;;;15.18;;
52964;SDS011;42923;53.220;6.528;2023-05-07T11:07:09;17.52;;;14.93;;
52964;SDS011;42923;53.220;6.528;2023-05-07T11:15:08;16.23;;;14.48;;
52964;SDS011;42923;53.220;6.528;2023-05-07T11:17:53;15.45;;;13.80;;
52964;SDS011;42923;53.220;6.528;2023-05-07T11:20:21;15.65;;;14.10;;
52964;SDS011;42923;53.220;6.528;2023-05-07T11:26:19;14.68;;;12.23;;
52964;SDS011;42923;53.220;6.528;2023-05-07T11:28:47;15.68;;;13.82;;
52964;SDS011;42923;53.220;6.528;2023-05-07T11:31:13;14.45;;;13.05;;
52964;SDS011;42923;53.220;6.528;2023-05-07T11:33:43;15.60;;;14.07;;
52964;SDS011;42923;53.220;6.528;2023-05-07T11:36:14;15.05;;;13.45;;
52964;SDS011;42923;53.220;6.528;2023-05-07T11:38:45;15.50;;;14.00;;
52964;SDS011;42923;53.220;6.528;2023-05-07T11:41:11;15.30;;;13.32;;
52964;SDS011;42923;53.220;6.528;2023-05-07T11:43:37;13.23;;;11.88;;
52964;SDS011;42923;53.220;6.528;2023-05-07T11:46:05;12.60;;;11.40;;
52964;SDS011;42923;53.220;6.528;2023-05-07T11:48:33;13.75;;;11.90;;
52964;SDS011;42923;53.220;6.528;2023-05-07T11:51:03;13.93;;;12.52;;
52964;SDS011;42923;53.220;6.528;2023-05-07T11:53:41;14.75;;;12.00;;
52964;SDS011;42923;53.220;6.528;2023-05-07T11:56:08;13.85;;;12.50;;
52964;SDS011;42923;53.220;6.528;2023-05-07T11:58:35;13.48;;;12.18;;
52964;SDS011;42923;53.220;6.528;2023-05-07T12:01:01;16.48;;;12.70;;
52964;SDS011;42923;53.220;6.528;2023-05-07T12:03:27;14.32;;;11.77;;
52964;SDS011;42923;53.220;6.528;2023-05-07T12:05:53;16.13;;;11.95;;
52964;SDS011;42923;53.220;6.528;2023-05-07T12:08:19;12.32;;;11.13;;
52964;SDS011;42923;53.220;6.528;2023-05-07T12:10:46;13.30;;;11.93;;
52964;SDS011;42923;53.220;6.528;2023-05-07T12:13:17;14.10;;;11.65;;
52964;SDS011;42923;53.220;6.528;2023-05-07T12:15:43;13.45;;;12.15;;
52964;SDS011;42923;53.220;6.528;2023-05-07T12:18:10;13.68;;;12.27;;
52964;SDS011;42923;53.220;6.528;2023-05-07T12:20:37;12.57;;;11.32;;
52964;SDS011;42923;53.220;6.528;2023-05-07T12:23:02;12.18;;;11.07;;
52964;SDS011;42923;53.220;6.528;2023-05-07T12:25:32;12.52;;;11.32;;
52964;SDS011;42923;53.220;6.528;2023-05-07T12:28:01;12.43;;;11.20;;
52964;SDS011;42923;53.220;6.528;2023-05-07T12:30:28;13.48;;;12.18;;
52964;SDS011;42923;53.220;6.528;2023-05-07T12:32:54;12.77;;;11.43;;
52964;SDS011;42923;53.220;6.528;2023-05-07T12:35:30;13.88;;;12.13;;
52964;SDS011;42923;53.220;6.528;2023-05-07T12:37:57;12.40;;;10.85;;
52964;SDS011;42923;53.220;6.528;2023-05-07T12:40:25;12.90;;;11.70;;
52964;SDS011;42923;53.220;6.528;2023-05-07T12:43:04;12.70;;;11.40;;
52964;SDS011;42923;53.220;6.528;2023-05-07T12:45:30;13.60;;;12.27;;
52964;SDS011;42923;53.220;6.528;2023-05-07T12:47:55;11.48;;;10.27;;
52964;SDS011;42923;53.220;6.528;2023-05-07T12:50:26;14.73;;;12.57;;
52964;SDS011;42923;53.220;6.528;2023-05-07T12:52:55;14.30;;;12.80;;
52964;SDS011;42923;53.220;6.528;2023-05-07T12:55:21;12.27;;;11.07;;
52964;SDS011;42923;53.220;6.528;2023-05-07T12:57:48;12.40;;;11.23;;
52964;SDS011;42923;53.220;6.528;2023-05-07T13:00:15;12.52;;;11.32;;
52964;SDS011;42923;53.220;6.528;2023-05-07T13:02:41;12.60;;;11.30;;
52964;SDS011;42923;53.220;6.528;2023-05-07T13:05:09;12.77;;;11.50;;
52964;SDS011;42923;53.220;6.528;2023-05-07T13:07:35;11.65;;;10.55;;
52964;SDS011;42923;53.220;6.528;2023-05-07T13:10:02;12.65;;;11.30;;
52964;SDS011;42923;53.220;6.528;2023-05-07T13:12:28;11.77;;;10.55;;
52964;SDS011;42923;53.220;6.528;2023-05-07T13:14:54;12.18;;;11.07;;
52964;SDS011;42923;53.220;6.528;2023-05-07T13:17:19;12.05;;;10.82;;
52964;SDS011;42923;53.220;6.528;2023-05-07T13:19:45;12.75;;;10.85;;
52964;SDS011;42923;53.220;6.528;2023-05-07T13:22:11;12.10;;;11.00;;
52964;SDS011;42923;53.220;6.528;2023-05-07T13:24:36;11.85;;;10.75;;
52964;SDS011;42923;53.220;6.528;2023-05-07T13:27:03;11.73;;;10.60;;
52964;SDS011;42923;53.220;6.528;2023-05-07T13:29:29;13.15;;;11.18;;
52964;SDS011;42923;53.220;6.528;2023-05-07T13:31:58;10.88;;;9.88;;
52964;SDS011;42923;53.220;6.528;2023-05-07T13:34:25;11.27;;;10.23;;
52964;SDS011;42923;53.220;6.528;2023-05-07T13:36:50;11.10;;;10.10;;
52964;SDS011;42923;53.220;6.528;2023-05-07T13:39:17;11.77;;;10.70;;
52964;SDS011;42923;53.220;6.528;2023-05-07T13:41:43;10.77;;;9.32;;
52964;SDS011;42923;53.220;6.528;2023-05-07T13:44:08;10.77;;;9.68;;
52964;SDS011;42923;53.220;6.528;2023-05-07T13:46:34;10.80;;;9.70;;
52964;SDS011;42923;53.220;6.528;2023-05-07T13:49:00;10.13;;;9.23;;
52964;SDS011;42923;53.220;6.528;2023-05-07T13:51:26;16.50;;;11.25;;
52964;SDS011;42923;53.220;6.528;2023-05-07T13:53:52;11.10;;;10.13;;
52964;SDS011;42923;53.220;6.528;2023-05-07T13:56:17;11.65;;;10.45;;
52964;SDS011;42923;53.220;6.528;2023-05-07T13:58:43;11.18;;;10.13;;
52964;SDS011;42923;53.220;6.528;2023-05-07T14:01:09;11.23;;;10.27;;
52964;SDS011;42923;53.220;6.528;2023-05-07T14:03:35;16.83;;;10.18;;
52964;SDS011;42923;53.220;6.528;2023-05-07T14:06:03;11.25;;;10.25;;
52964;SDS011;42923;53.220;6.528;2023-05-07T14:08:28;10.50;;;9.52;;
52964;SDS011;42923;53.220;6.528;2023-05-07T14:10:54;10.63;;;9.52;;
52964;SDS011;42923;53.220;6.528;2023-05-07T14:13:20;16.70;;;9.82;;
52964;SDS011;42923;53.220;6.528;2023-05-07T14:15:46;10.95;;;9.88;;
52964;SDS011;42923;53.220;6.528;2023-05-07T14:18:13;9.77;;;8.88;;
52964;SDS011;42923;53.220;6.528;2023-05-07T14:20:39;11.50;;;9.88;;
52964;SDS011;42923;53.220;6.528;2023-05-07T14:23:05;12.07;;;9.98;;
52964;SDS011;42923;53.220;6.528;2023-05-07T14:25:31;12.10;;;10.90;;
52964;SDS011;42923;53.220;6.528;2023-05-07T14:27:57;11.60;;;10.43;;
52964;SDS011;42923;53.220;6.528;2023-05-07T14:30:23;11.18;;;10.07;;
52964;SDS011;42923;53.220;6.528;2023-05-07T14:32:49;10.38;;;9.32;;
52964;SDS011;42923;53.220;6.528;2023-05-07T14:35:15;11.90;;;9.32;;
52964;SDS011;42923;53.220;6.528;2023-05-07T14:37:41;9.98;;;8.95;;
52964;SDS011;42923;53.220;6.528;2023-05-07T14:40:08;11.70;;;10.50;;